Rzeszow, Poland
Current Conditions -  °F | °C
As of 10:30 PM on Friday 24 Oct 2014 (Local Time) from EPRZ Reporting Station
Overcast Overcast  
Wind Chill: 24°   Ceiling: 1700
Heat Index: 34°   Visibility: 6mi
Dew Point: 28°   Wind: 15mph
Humidity: 81%   Direction: 100°E
Pressure: 30.33"   Gusts: NA
Location:  50.05°N, 22°E
Report Text: EPRZ 242030Z 10013KT 9999 OVC017 01/M02 Q1027
Loading
Personal Weather Stations






























Interactive Weather Map
Tropical Storm Tracking
New forecast layout! Learn more

10-Day Weather Forecast

Advertisements
Track Severe Weather on mobile